sensor_id;sensor_type;location;lat;lon;timestamp;pressure;altitude;pressure_sealevel;temperature;humidity
11712;BME280;5912;51.034;6.984;2024-03-23T00:56:03;56564.66;;;-142.13;75.12
11712;BME280;5912;51.034;6.984;2024-03-23T00:58:29;56604.72;;;-142.13;75.08
11712;BME280;5912;51.034;6.984;2024-03-23T01:00:55;56566.66;;;-142.13;75.43
11712;BME280;5912;51.034;6.984;2024-03-23T01:03:20;56566.66;;;-142.13;75.70
11712;BME280;5912;51.034;6.984;2024-03-23T01:05:46;56544.63;;;-142.13;75.63
11712;BME280;5912;51.034;6.984;2024-03-23T01:08:11;56574.69;;;-142.13;74.90
11712;BME280;5912;51.034;6.984;2024-03-23T01:10:36;56620.75;;;-142.13;74.35
11712;BME280;5912;51.034;6.984;2024-03-23T01:13:02;56738.97;;;-142.13;74.31
11712;BME280;5912;51.034;6.984;2024-03-23T01:15:27;56592.72;;;-142.13;74.69
11712;BME280;5912;51.034;6.984;2024-03-23T01:17:53;56570.69;;;-142.13;74.70
11712;BME280;5912;51.034;6.984;2024-03-23T01:20:18;56596.72;;;-142.13;74.79
11712;BME280;5912;51.034;6.984;2024-03-23T01:22:43;56616.75;;;-142.13;74.37
11712;BME280;5912;51.034;6.984;2024-03-23T01:25:08;56652.81;;;-142.13;74.32
11712;BME280;5912;51.034;6.984;2024-03-23T01:27:34;56556.66;;;-142.13;74.48
11712;BME280;5912;51.034;6.984;2024-03-23T01:29:59;56606.75;;;-142.13;74.65
11712;BME280;5912;51.034;6.984;2024-03-23T01:32:25;56592.72;;;-142.13;74.70
11712;BME280;5912;51.034;6.984;2024-03-23T01:34:50;56612.75;;;-142.13;74.13
11712;BME280;5912;51.034;6.984;2024-03-23T01:37:15;56604.72;;;-142.13;74.65
11712;BME280;5912;51.034;6.984;2024-03-23T01:39:40;56610.75;;;-142.13;74.14
11712;BME280;5912;51.034;6.984;2024-03-23T01:42:06;56608.75;;;-142.13;74.37
11712;BME280;5912;51.034;6.984;2024-03-23T01:44:40;56618.75;;;-142.13;74.44
11712;BME280;5912;51.034;6.984;2024-03-23T01:47:06;56734.94;;;-142.13;74.38
11712;BME280;5912;51.034;6.984;2024-03-23T01:49:32;56620.75;;;-142.13;74.13
11712;BME280;5912;51.034;6.984;2024-03-23T01:51:58;56626.78;;;-142.13;74.06
11712;BME280;5912;51.034;6.984;2024-03-23T01:54:25;56616.75;;;-142.13;74.22
11712;BME280;5912;51.034;6.984;2024-03-23T01:56:50;56610.75;;;-142.13;74.32
11712;BME280;5912;51.034;6.984;2024-03-23T01:59:16;56646.81;;;-142.13;74.29
11712;BME280;5912;51.034;6.984;2024-03-23T02:01:41;56634.78;;;-142.13;74.08
11712;BME280;5912;51.034;6.984;2024-03-23T02:04:06;56588.69;;;-142.13;74.01
11712;BME280;5912;51.034;6.984;2024-03-23T02:06:32;56602.72;;;-142.13;73.82
11712;BME280;5912;51.034;6.984;2024-03-23T02:08:58;56598.72;;;-142.13;74.17
11712;BME280;5912;51.034;6.984;2024-03-23T02:11:23;56636.78;;;-142.13;74.28
11712;BME280;5912;51.034;6.984;2024-03-23T02:13:48;56640.78;;;-142.13;74.23
11712;BME280;5912;51.034;6.984;2024-03-23T02:16:14;56640.78;;;-142.13;74.41
11712;BME280;5912;51.034;6.984;2024-03-23T02:18:39;56646.81;;;-142.13;74.32
11712;BME280;5912;51.034;6.984;2024-03-23T02:24:14;56612.75;;;-142.13;74.49
11712;BME280;5912;51.034;6.984;2024-03-23T02:26:39;56612.75;;;-142.13;74.37
11712;BME280;5912;51.034;6.984;2024-03-23T02:29:04;56632.78;;;-142.13;74.09
11712;BME280;5912;51.034;6.984;2024-03-23T02:31:30;56628.78;;;-142.13;73.07
11712;BME280;5912;51.034;6.984;2024-03-23T02:33:55;56616.75;;;-142.13;72.73
11712;BME280;5912;51.034;6.984;2024-03-23T02:36:20;56600.72;;;-142.13;72.34
11712;BME280;5912;51.034;6.984;2024-03-23T02:38:46;56602.72;;;-142.13;72.18
11712;BME280;5912;51.034;6.984;2024-03-23T02:41:11;56620.75;;;-142.13;72.20
11712;BME280;5912;51.034;6.984;2024-03-23T02:43:37;56626.78;;;-142.13;72.69
11712;BME280;5912;51.034;6.984;2024-03-23T02:46:03;56614.75;;;-142.13;72.89
11712;BME280;5912;51.034;6.984;2024-03-23T02:48:29;56616.75;;;-142.13;73.16
11712;BME280;5912;51.034;6.984;2024-03-23T02:50:54;56632.78;;;-142.13;72.71
11712;BME280;5912;51.034;6.984;2024-03-23T02:53:20;56644.81;;;-142.13;72.32
11712;BME280;5912;51.034;6.984;2024-03-23T02:55:45;56598.72;;;-142.13;72.38
11712;BME280;5912;51.034;6.984;2024-03-23T02:58:10;56618.75;;;-142.13;72.47
11712;BME280;5912;51.034;6.984;2024-03-23T03:00:36;56624.75;;;-142.13;72.26
11712;BME280;5912;51.034;6.984;2024-03-23T03:03:01;56632.78;;;-142.13;71.90
11712;BME280;5912;51.034;6.984;2024-03-23T03:05:28;56618.75;;;-142.13;71.99
11712;BME280;5912;51.034;6.984;2024-03-23T03:07:53;56636.78;;;-142.13;72.00
11712;BME280;5912;51.034;6.984;2024-03-23T03:10:19;56634.78;;;-142.13;72.33
11712;BME280;5912;51.034;6.984;2024-03-23T03:12:44;56628.78;;;-142.13;72.67
11712;BME280;5912;51.034;6.984;2024-03-23T03:15:09;56656.81;;;-142.13;72.76
11712;BME280;5912;51.034;6.984;2024-03-23T03:17:35;56652.81;;;-142.13;72.38
11712;BME280;5912;51.034;6.984;2024-03-23T03:20:00;56636.78;;;-142.13;72.64
11712;BME280;5912;51.034;6.984;2024-03-23T03:22:25;56620.75;;;-142.13;72.45
11712;BME280;5912;51.034;6.984;2024-03-23T03:24:51;56644.81;;;-142.13;72.64
11712;BME280;5912;51.034;6.984;2024-03-23T03:27:16;56636.78;;;-142.13;72.61
11712;BME280;5912;51.034;6.984;2024-03-23T03:29:41;56640.78;;;-142.13;72.16
11712;BME280;5912;51.034;6.984;2024-03-23T03:32:07;56632.78;;;-142.13;72.17
11712;BME280;5912;51.034;6.984;2024-03-23T03:34:32;56632.78;;;-142.13;72.34
11712;BME280;5912;51.034;6.984;2024-03-23T03:36:57;56636.78;;;-142.13;72.33
11712;BME280;5912;51.034;6.984;2024-03-23T03:39:23;56652.81;;;-142.13;72.54
11712;BME280;5912;51.034;6.984;2024-03-23T03:41:49;56628.78;;;-142.13;72.66
11712;BME280;5912;51.034;6.984;2024-03-23T03:44:14;56616.75;;;-142.13;72.58
11712;BME280;5912;51.034;6.984;2024-03-23T03:46:40;56628.78;;;-142.13;73.01
11712;BME280;5912;51.034;6.984;2024-03-23T03:49:05;56620.75;;;-142.13;73.31
11712;BME280;5912;51.034;6.984;2024-03-23T03:51:30;56634.78;;;-142.13;73.39
11712;BME280;5912;51.034;6.984;2024-03-23T03:53:56;56638.78;;;-142.13;73.41
11712;BME280;5912;51.034;6.984;2024-03-23T03:56:21;56610.75;;;-142.13;73.49
11712;BME280;5912;51.034;6.984;2024-03-23T03:58:47;56606.75;;;-142.13;73.07
11712;BME280;5912;51.034;6.984;2024-03-23T04:01:13;56658.81;;;-142.13;73.31
11712;BME280;5912;51.034;6.984;2024-03-23T04:03:43;56620.75;;;-142.13;73.36
11712;BME280;5912;51.034;6.984;2024-03-23T04:06:12;56620.75;;;-142.13;73.40
11712;BME280;5912;51.034;6.984;2024-03-23T04:08:37;56628.78;;;-142.13;73.13
11712;BME280;5912;51.034;6.984;2024-03-23T04:11:03;56612.75;;;-142.13;72.94
11712;BME280;5912;51.034;6.984;2024-03-23T04:13:28;56634.78;;;-142.13;73.22
11712;BME280;5912;51.034;6.984;2024-03-23T04:15:54;56630.78;;;-142.13;73.04
11712;BME280;5912;51.034;6.984;2024-03-23T04:18:20;56636.78;;;-142.13;72.74
11712;BME280;5912;51.034;6.984;2024-03-23T04:20:46;56636.78;;;-142.13;72.38
11712;BME280;5912;51.034;6.984;2024-03-23T04:23:11;56624.75;;;-142.13;72.44
11712;BME280;5912;51.034;6.984;2024-03-23T04:25:37;56628.78;;;-142.13;72.40
11712;BME280;5912;51.034;6.984;2024-03-23T04:28:02;56618.75;;;-142.13;72.53
11712;BME280;5912;51.034;6.984;2024-03-23T04:30:27;56650.81;;;-142.13;72.42
11712;BME280;5912;51.034;6.984;2024-03-23T04:32:54;56644.81;;;-142.13;72.90
11712;BME280;5912;51.034;6.984;2024-03-23T04:35:19;56618.75;;;-142.13;72.95
11712;BME280;5912;51.034;6.984;2024-03-23T04:37:47;56622.75;;;-142.13;72.71
11712;BME280;5912;51.034;6.984;2024-03-23T04:40:12;56648.81;;;-142.13;72.52
11712;BME280;5912;51.034;6.984;2024-03-23T04:42:37;56634.78;;;-142.13;72.51
11712;BME280;5912;51.034;6.984;2024-03-23T04:45:04;56628.78;;;-142.13;72.41
11712;BME280;5912;51.034;6.984;2024-03-23T04:47:31;56660.81;;;-142.13;72.99
11712;BME280;5912;51.034;6.984;2024-03-23T04:49:56;56662.81;;;-142.13;72.95
11712;BME280;5912;51.034;6.984;2024-03-23T04:52:21;56648.81;;;-142.13;73.00
11712;BME280;5912;51.034;6.984;2024-03-23T04:54:47;56640.78;;;-142.13;72.81
11712;BME280;5912;51.034;6.984;2024-03-23T04:57:12;56634.78;;;-142.13;72.83
11712;BME280;5912;51.034;6.984;2024-03-23T04:59:38;56648.81;;;-142.13;72.85
11712;BME280;5912;51.034;6.984;2024-03-23T05:02:03;56626.78;;;-142.13;73.20
11712;BME280;5912;51.034;6.984;2024-03-23T05:04:29;56634.78;;;-142.13;73.10
11712;BME280;5912;51.034;6.984;2024-03-23T05:06:54;56640.78;;;-142.13;73.05
11712;BME280;5912;51.034;6.984;2024-03-23T05:09:19;56642.78;;;-142.13;73.43
11712;BME280;5912;51.034;6.984;2024-03-23T05:11:45;56610.75;;;-142.13;73.56
11712;BME280;5912;51.034;6.984;2024-03-23T05:14:13;56632.78;;;-142.13;72.88
11712;BME280;5912;51.034;6.984;2024-03-23T05:16:38;56652.81;;;-142.13;73.17
11712;BME280;5912;51.034;6.984;2024-03-23T05:19:04;56640.78;;;-142.13;73.21
11712;BME280;5912;51.034;6.984;2024-03-23T05:21:29;56660.81;;;-142.13;73.10
11712;BME280;5912;51.034;6.984;2024-03-23T05:23:55;56660.81;;;-142.13;73.27
11712;BME280;5912;51.034;6.984;2024-03-23T05:26:22;56620.75;;;-142.13;73.33
11712;BME280;5912;51.034;6.984;2024-03-23T05:28:47;56640.78;;;-142.13;73.52
11712;BME280;5912;51.034;6.984;2024-03-23T05:31:22;56648.81;;;-142.13;73.43
11712;BME280;5912;51.034;6.984;2024-03-23T05:33:48;56608.75;;;-142.13;73.03
11712;BME280;5912;51.034;6.984;2024-03-23T05:36:13;56648.81;;;-142.13;73.12
11712;BME280;5912;51.034;6.984;2024-03-23T05:38:38;56606.75;;;-142.13;73.25
11712;BME280;5912;51.034;6.984;2024-03-23T05:41:04;56664.84;;;-142.13;73.65
11712;BME280;5912;51.034;6.984;2024-03-23T05:43:29;56626.78;;;-142.13;73.38
11712;BME280;5912;51.034;6.984;2024-03-23T05:45:55;56638.78;;;-142.13;73.16
11712;BME280;5912;51.034;6.984;2024-03-23T05:48:21;56688.88;;;-142.13;72.96
11712;BME280;5912;51.034;6.984;2024-03-23T05:50:47;56602.72;;;-142.13;73.20
11712;BME280;5912;51.034;6.984;2024-03-23T05:53:12;56624.75;;;-142.13;73.38
11712;BME280;5912;51.034;6.984;2024-03-23T05:55:38;56626.78;;;-142.13;73.34
11712;BME280;5912;51.034;6.984;2024-03-23T05:58:03;56668.84;;;-142.13;73.54
11712;BME280;5912;51.034;6.984;2024-03-23T06:00:29;56622.75;;;-142.13;73.55
11712;BME280;5912;51.034;6.984;2024-03-23T06:02:54;56646.81;;;-142.13;73.71
11712;BME280;5912;51.034;6.984;2024-03-23T06:05:19;56654.81;;;-142.13;73.43
11712;BME280;5912;51.034;6.984;2024-03-23T06:07:45;56630.78;;;-142.13;73.55
11712;BME280;5912;51.034;6.984;2024-03-23T06:10:10;56652.81;;;-142.13;73.53
11712;BME280;5912;51.034;6.984;2024-03-23T06:12:35;56660.81;;;-142.13;73.85
11712;BME280;5912;51.034;6.984;2024-03-23T06:15:01;56626.78;;;-142.13;73.70
11712;BME280;5912;51.034;6.984;2024-03-23T06:17:27;56646.81;;;-142.13;73.62
11712;BME280;5912;51.034;6.984;2024-03-23T06:19:52;56660.81;;;-142.13;73.27
11712;BME280;5912;51.034;6.984;2024-03-23T06:22:17;56616.75;;;-142.13;73.64
11712;BME280;5912;51.034;6.984;2024-03-23T06:24:42;56616.75;;;-142.13;73.12
11712;BME280;5912;51.034;6.984;2024-03-23T06:27:08;56634.78;;;-142.13;73.15
11712;BME280;5912;51.034;6.984;2024-03-23T06:29:33;56624.75;;;-142.13;73.13
11712;BME280;5912;51.034;6.984;2024-03-23T06:32:30;56624.75;;;-142.13;72.75
11712;BME280;5912;51.034;6.984;2024-03-23T06:34:55;56622.75;;;-142.13;72.82
11712;BME280;5912;51.034;6.984;2024-03-23T06:37:20;56632.78;;;-142.13;72.75
11712;BME280;5912;51.034;6.984;2024-03-23T06:39:46;56616.75;;;-142.13;71.75
11712;BME280;5912;51.034;6.984;2024-03-23T06:42:11;56636.78;;;-142.13;71.71
11712;BME280;5912;51.034;6.984;2024-03-23T06:44:36;56604.72;;;-142.13;71.48
11712;BME280;5912;51.034;6.984;2024-03-23T06:47:01;56614.75;;;-142.13;70.78
11712;BME280;5912;51.034;6.984;2024-03-23T06:49:28;56594.72;;;-142.13;70.77
11712;BME280;5912;51.034;6.984;2024-03-23T06:51:53;56606.75;;;-142.13;71.14
11712;BME280;5912;51.034;6.984;2024-03-23T06:54:19;56646.81;;;-142.13;71.12
11712;BME280;5912;51.034;6.984;2024-03-23T06:56:44;56630.78;;;-142.13;71.36
11712;BME280;5912;51.034;6.984;2024-03-23T06:59:10;56648.81;;;-142.13;71.34
11712;BME280;5912;51.034;6.984;2024-03-23T07:01:35;56622.75;;;-142.13;70.68
11712;BME280;5912;51.034;6.984;2024-03-23T07:04:00;56616.75;;;-142.13;70.29
11712;BME280;5912;51.034;6.984;2024-03-23T07:06:26;56606.75;;;-142.13;70.51
11712;BME280;5912;51.034;6.984;2024-03-23T07:08:52;56632.78;;;-142.13;70.17
11712;BME280;5912;51.034;6.984;2024-03-23T07:11:19;56588.69;;;-142.13;69.99
11712;BME280;5912;51.034;6.984;2024-03-23T07:13:45;56602.72;;;-142.13;70.38
11712;BME280;5912;51.034;6.984;2024-03-23T07:16:10;56560.66;;;-142.13;70.20
11712;BME280;5912;51.034;6.984;2024-03-23T07:18:36;56568.66;;;-142.13;69.03
11712;BME280;5912;51.034;6.984;2024-03-23T07:21:01;56572.69;;;-142.13;68.07
11712;BME280;5912;51.034;6.984;2024-03-23T07:23:26;56602.72;;;-142.13;68.28
11712;BME280;5912;51.034;6.984;2024-03-23T07:26:02;56584.69;;;-142.13;67.28
11712;BME280;5912;51.034;6.984;2024-03-23T07:28:28;56556.66;;;-142.13;66.84
11712;BME280;5912;51.034;6.984;2024-03-23T07:31:09;56548.63;;;-142.13;66.26
11712;BME280;5912;51.034;6.984;2024-03-23T07:33:45;56570.69;;;-142.13;66.03
11712;BME280;5912;51.034;6.984;2024-03-23T07:36:11;56548.63;;;-142.13;65.47
11712;BME280;5912;51.034;6.984;2024-03-23T07:38:37;56548.63;;;-142.13;65.44
11712;BME280;5912;51.034;6.984;2024-03-23T07:41:06;56542.63;;;-142.13;63.97
11712;BME280;5912;51.034;6.984;2024-03-23T07:43:31;56534.63;;;-142.13;62.94
11712;BME280;5912;51.034;6.984;2024-03-23T07:45:57;56506.56;;;-142.13;62.03
11712;BME280;5912;51.034;6.984;2024-03-23T07:48:22;56506.56;;;-142.13;59.23
11712;BME280;5912;51.034;6.984;2024-03-23T07:51:03;56540.63;;;-142.13;60.21
11712;BME280;5912;51.034;6.984;2024-03-23T07:53:29;56474.53;;;-142.13;60.35
11712;BME280;5912;51.034;6.984;2024-03-23T07:56:03;56492.53;;;-142.13;58.31
11712;BME280;5912;51.034;6.984;2024-03-23T07:58:29;56494.56;;;-142.13;57.81
11712;BME280;5912;51.034;6.984;2024-03-23T08:00:55;56534.63;;;-142.13;58.57
11712;BME280;5912;51.034;6.984;2024-03-23T08:03:21;56492.53;;;-142.13;59.62
11712;BME280;5912;51.034;6.984;2024-03-23T08:05:47;56462.50;;;-142.13;57.88
11712;BME280;5912;51.034;6.984;2024-03-23T08:08:12;56442.47;;;-142.13;56.15
11712;BME280;5912;51.034;6.984;2024-03-23T08:10:51;56418.44;;;-142.13;53.30
11712;BME280;5912;51.034;6.984;2024-03-23T08:13:16;56438.47;;;-142.13;52.88
11712;BME280;5912;51.034;6.984;2024-03-23T08:15:42;56464.50;;;-142.13;52.72
11712;BME280;5912;51.034;6.984;2024-03-23T08:18:07;56418.44;;;-142.13;49.36
11712;BME280;5912;51.034;6.984;2024-03-23T08:20:33;56448.47;;;-142.13;48.51
11712;BME280;5912;51.034;6.984;2024-03-23T08:22:58;56402.41;;;-142.13;49.26
11712;BME280;5912;51.034;6.984;2024-03-23T08:25:23;56384.38;;;-142.13;48.34
11712;BME280;5912;51.034;6.984;2024-03-23T08:27:48;56414.41;;;-142.13;48.93
11712;BME280;5912;51.034;6.984;2024-03-23T08:30:34;56380.38;;;-142.13;48.05
11712;BME280;5912;51.034;6.984;2024-03-23T08:33:00;56372.34;;;-142.13;44.45
11712;BME280;5912;51.034;6.984;2024-03-23T08:35:25;56398.41;;;-142.13;43.58
11712;BME280;5912;51.034;6.984;2024-03-23T08:37:50;56436.47;;;-142.13;43.43
11712;BME280;5912;51.034;6.984;2024-03-23T08:40:16;56464.50;;;-142.13;45.70
11712;BME280;5912;51.034;6.984;2024-03-23T08:42:41;56454.47;;;-142.13;47.13
11712;BME280;5912;51.034;6.984;2024-03-23T08:45:07;56496.56;;;-142.13;45.95
11712;BME280;5912;51.034;6.984;2024-03-23T08:47:34;56420.44;;;-142.13;45.66
11712;BME280;5912;51.034;6.984;2024-03-23T08:49:59;56382.38;;;-142.13;43.54
11712;BME280;5912;51.034;6.984;2024-03-23T08:52:25;56376.34;;;-142.13;41.54
11712;BME280;5912;51.034;6.984;2024-03-23T08:54:53;56368.34;;;-142.13;41.07
11712;BME280;5912;51.034;6.984;2024-03-23T08:57:18;56382.38;;;-142.13;40.93
11712;BME280;5912;51.034;6.984;2024-03-23T08:59:44;56416.44;;;-142.13;41.25
11712;BME280;5912;51.034;6.984;2024-03-23T09:02:09;56392.38;;;-142.13;42.03
11712;BME280;5912;51.034;6.984;2024-03-23T09:04:34;56374.34;;;-142.13;42.31
11712;BME280;5912;51.034;6.984;2024-03-23T09:07:00;56478.53;;;-142.13;41.37
11712;BME280;5912;51.034;6.984;2024-03-23T09:09:25;56384.38;;;-142.13;42.81
11712;BME280;5912;51.034;6.984;2024-03-23T09:11:51;56406.41;;;-142.13;42.96
11712;BME280;5912;51.034;6.984;2024-03-23T09:14:16;56380.38;;;-142.13;43.76
11712;BME280;5912;51.034;6.984;2024-03-23T09:16:41;56380.38;;;-142.13;41.52
11712;BME280;5912;51.034;6.984;2024-03-23T09:19:07;56350.31;;;-142.13;40.93
11712;BME280;5912;51.034;6.984;2024-03-23T09:21:32;56318.25;;;-142.13;40.62
11712;BME280;5912;51.034;6.984;2024-03-23T09:23:59;56322.28;;;-142.13;38.42
11712;BME280;5912;51.034;6.984;2024-03-23T09:26:24;56350.31;;;-142.13;38.58
11712;BME280;5912;51.034;6.984;2024-03-23T09:28:49;56378.38;;;-142.13;39.59
11712;BME280;5912;51.034;6.984;2024-03-23T09:31:15;56336.28;;;-142.13;39.34
11712;BME280;5912;51.034;6.984;2024-03-23T09:33:40;56346.31;;;-142.13;39.01
11712;BME280;5912;51.034;6.984;2024-03-23T09:36:06;56354.31;;;-142.13;38.00
11712;BME280;5912;51.034;6.984;2024-03-23T09:38:32;56336.28;;;-142.13;37.91
11712;BME280;5912;51.034;6.984;2024-03-23T09:40:58;56332.28;;;-142.13;37.04
11712;BME280;5912;51.034;6.984;2024-03-23T09:43:23;56356.31;;;-142.13;36.71
11712;BME280;5912;51.034;6.984;2024-03-23T09:45:49;56340.31;;;-142.13;37.77
11712;BME280;5912;51.034;6.984;2024-03-23T09:48:15;56310.25;;;-142.13;35.95
11712;BME280;5912;51.034;6.984;2024-03-23T09:50:41;56330.28;;;-142.13;36.33
11712;BME280;5912;51.034;6.984;2024-03-23T09:53:07;56348.31;;;-142.13;36.37
11712;BME280;5912;51.034;6.984;2024-03-23T09:55:33;56424.44;;;-142.13;36.71
11712;BME280;5912;51.034;6.984;2024-03-23T09:58:00;56422.44;;;-142.13;38.92
11712;BME280;5912;51.034;6.984;2024-03-23T10:00:26;56380.38;;;-142.13;39.24
11712;BME280;5912;51.034;6.984;2024-03-23T10:02:51;56422.44;;;-142.13;37.89
11712;BME280;5912;51.034;6.984;2024-03-23T10:05:21;56436.47;;;-142.13;38.07
11712;BME280;5912;51.034;6.984;2024-03-23T10:07:51;56394.38;;;-142.13;37.83
11712;BME280;5912;51.034;6.984;2024-03-23T10:10:16;56412.41;;;-142.13;38.27
11712;BME280;5912;51.034;6.984;2024-03-23T10:12:46;56428.44;;;-142.13;39.17
11712;BME280;5912;51.034;6.984;2024-03-23T10:15:24;56422.44;;;-142.13;39.26
11712;BME280;5912;51.034;6.984;2024-03-23T10:17:50;56400.41;;;-142.13;36.54
11712;BME280;5912;51.034;6.984;2024-03-23T10:20:22;56364.34;;;-142.13;36.29
11712;BME280;5912;51.034;6.984;2024-03-23T10:22:51;56346.31;;;-142.13;35.50
11712;BME280;5912;51.034;6.984;2024-03-23T10:25:17;56324.28;;;-142.13;34.10
11712;BME280;5912;51.034;6.984;2024-03-23T10:27:43;56288.22;;;-142.13;33.53
11712;BME280;5912;51.034;6.984;2024-03-23T10:30:09;56312.25;;;-142.13;32.77
11712;BME280;5912;51.034;6.984;2024-03-23T10:32:35;56368.34;;;-142.13;33.02
11712;BME280;5912;51.034;6.984;2024-03-23T10:35:17;56360.34;;;-142.13;34.69
11712;BME280;5912;51.034;6.984;2024-03-23T10:37:49;56398.41;;;-142.13;35.44
11712;BME280;5912;51.034;6.984;2024-03-23T10:40:15;56408.41;;;-142.13;36.57
11712;BME280;5912;51.034;6.984;2024-03-23T10:42:41;56438.47;;;-142.13;37.48
11712;BME280;5912;51.034;6.984;2024-03-23T10:45:07;56456.50;;;-142.13;39.78
11712;BME280;5912;51.034;6.984;2024-03-23T10:47:35;56464.50;;;-142.13;41.10
11712;BME280;5912;51.034;6.984;2024-03-23T10:50:01;56512.59;;;-142.13;41.86
11712;BME280;5912;51.034;6.984;2024-03-23T10:52:27;56496.56;;;-142.13;41.38
11712;BME280;5912;51.034;6.984;2024-03-23T10:54:52;56488.53;;;-142.13;42.05
11712;BME280;5912;51.034;6.984;2024-03-23T10:57:21;56502.56;;;-142.13;42.99
11712;BME280;5912;51.034;6.984;2024-03-23T10:59:48;56624.75;;;-142.13;43.72
11712;BME280;5912;51.034;6.984;2024-03-23T11:02:20;56542.63;;;-142.13;43.41
11712;BME280;5912;51.034;6.984;2024-03-23T11:04:46;56538.63;;;-142.13;44.42
11712;BME280;5912;51.034;6.984;2024-03-23T11:09:49;56548.63;;;-142.13;46.16
11712;BME280;5912;51.034;6.984;2024-03-23T11:14:52;56554.66;;;-142.13;50.55
11712;BME280;5912;51.034;6.984;2024-03-23T11:17:22;56568.66;;;-142.13;53.19
11712;BME280;5912;51.034;6.984;2024-03-23T11:20:01;56556.66;;;-142.13;52.70
11712;BME280;5912;51.034;6.984;2024-03-23T11:25:18;56558.66;;;-142.13;53.32
11712;BME280;5912;51.034;6.984;2024-03-23T11:27:44;56574.69;;;-142.13;52.89
11712;BME280;5912;51.034;6.984;2024-03-23T11:30:18;56562.66;;;-142.13;52.71
11712;BME280;5912;51.034;6.984;2024-03-23T11:32:45;56574.69;;;-142.13;50.75
11712;BME280;5912;51.034;6.984;2024-03-23T11:35:24;56564.66;;;-142.13;52.09
11712;BME280;5912;51.034;6.984;2024-03-23T11:40:26;56490.53;;;-142.13;43.13
11712;BME280;5912;51.034;6.984;2024-03-23T11:42:56;56430.44;;;-142.13;41.97
11712;BME280;5912;51.034;6.984;2024-03-23T11:45:21;56414.41;;;-142.13;38.71
11712;BME280;5912;51.034;6.984;2024-03-23T11:47:46;56346.31;;;-142.13;36.69
11712;BME280;5912;51.034;6.984;2024-03-23T11:50:19;56316.25;;;-142.13;35.53
11712;BME280;5912;51.034;6.984;2024-03-23T11:52:44;56348.31;;;-142.13;34.99
11712;BME280;5912;51.034;6.984;2024-03-23T11:55:10;56384.38;;;-142.13;35.30
11712;BME280;5912;51.034;6.984;2024-03-23T11:57:35;56436.47;;;-142.13;37.18
11712;BME280;5912;51.034;6.984;2024-03-23T12:00:00;56412.41;;;-142.13;37.72
11712;BME280;5912;51.034;6.984;2024-03-23T12:02:26;56368.34;;;-142.13;38.27
11712;BME280;5912;51.034;6.984;2024-03-23T12:05:26;56376.34;;;-142.13;37.40
11712;BME280;5912;51.034;6.984;2024-03-23T12:07:51;56388.38;;;-142.13;38.00
11712;BME280;5912;51.034;6.984;2024-03-23T12:10:19;56418.44;;;-142.13;37.17
11712;BME280;5912;51.034;6.984;2024-03-23T12:12:44;56392.38;;;-142.13;38.08
11712;BME280;5912;51.034;6.984;2024-03-23T12:15:10;56322.28;;;-142.13;36.93
11712;BME280;5912;51.034;6.984;2024-03-23T12:17:38;56336.28;;;-142.13;36.50
11712;BME280;5912;51.034;6.984;2024-03-23T12:20:04;56354.31;;;-142.13;36.73
11712;BME280;5912;51.034;6.984;2024-03-23T12:22:29;56400.41;;;-142.13;36.66
11712;BME280;5912;51.034;6.984;2024-03-23T12:24:55;56446.47;;;-142.13;37.19
11712;BME280;5912;51.034;6.984;2024-03-23T12:27:21;56466.50;;;-142.13;39.54
11712;BME280;5912;51.034;6.984;2024-03-23T12:29:46;56428.44;;;-142.13;39.86
11712;BME280;5912;51.034;6.984;2024-03-23T12:32:14;56448.47;;;-142.13;39.56
11712;BME280;5912;51.034;6.984;2024-03-23T12:34:40;56466.50;;;-142.13;40.32
11712;BME280;5912;51.034;6.984;2024-03-23T12:37:06;56468.50;;;-142.13;43.58
11712;BME280;5912;51.034;6.984;2024-03-23T12:39:31;56520.59;;;-142.13;46.82
11712;BME280;5912;51.034;6.984;2024-03-23T12:41:57;56528.59;;;-142.13;48.04
11712;BME280;5912;51.034;6.984;2024-03-23T12:44:22;56558.66;;;-142.13;49.39
11712;BME280;5912;51.034;6.984;2024-03-23T12:46:47;56558.66;;;-142.13;53.05
11712;BME280;5912;51.034;6.984;2024-03-23T12:49:13;56584.69;;;-142.13;55.43
11712;BME280;5912;51.034;6.984;2024-03-23T12:51:38;56572.69;;;-142.13;55.56
11712;BME280;5912;51.034;6.984;2024-03-23T12:54:04;56564.66;;;-142.13;57.29
11712;BME280;5912;51.034;6.984;2024-03-23T12:56:29;56568.66;;;-142.13;57.79
11712;BME280;5912;51.034;6.984;2024-03-23T12:58:55;56560.66;;;-142.13;58.59
11712;BME280;5912;51.034;6.984;2024-03-23T13:01:23;56530.59;;;-142.13;57.03
11712;BME280;5912;51.034;6.984;2024-03-23T13:03:49;56488.53;;;-142.13;53.61
11712;BME280;5912;51.034;6.984;2024-03-23T13:06:15;56502.56;;;-142.13;50.66
11712;BME280;5912;51.034;6.984;2024-03-23T13:08:40;56466.50;;;-142.13;47.66
11712;BME280;5912;51.034;6.984;2024-03-23T13:11:06;56440.47;;;-142.13;45.47
11712;BME280;5912;51.034;6.984;2024-03-23T13:13:34;56408.41;;;-142.13;41.56
11712;BME280;5912;51.034;6.984;2024-03-23T13:15:59;56416.44;;;-142.13;38.88
11712;BME280;5912;51.034;6.984;2024-03-23T13:18:25;56348.31;;;-142.13;37.98
11712;BME280;5912;51.034;6.984;2024-03-23T13:20:50;56360.34;;;-142.13;36.83
11712;BME280;5912;51.034;6.984;2024-03-23T13:23:15;56344.31;;;-142.13;37.16
11712;BME280;5912;51.034;6.984;2024-03-23T13:25:40;56366.34;;;-142.13;36.22
11712;BME280;5912;51.034;6.984;2024-03-23T13:28:06;56344.31;;;-142.13;34.36
11712;BME280;5912;51.034;6.984;2024-03-23T13:30:31;56326.28;;;-142.13;35.76
11712;BME280;5912;51.034;6.984;2024-03-23T13:32:57;56358.34;;;-142.13;35.35
11712;BME280;5912;51.034;6.984;2024-03-23T13:35:22;56322.28;;;-142.13;35.78
11712;BME280;5912;51.034;6.984;2024-03-23T13:37:48;56338.31;;;-142.13;34.47
11712;BME280;5912;51.034;6.984;2024-03-23T13:40:13;56464.50;;;-142.13;34.86
11712;BME280;5912;51.034;6.984;2024-03-23T13:42:39;56368.34;;;-142.13;35.74
11712;BME280;5912;51.034;6.984;2024-03-23T13:45:04;56332.28;;;-142.13;34.63
11712;BME280;5912;51.034;6.984;2024-03-23T13:47:30;56348.31;;;-142.13;35.62
11712;BME280;5912;51.034;6.984;2024-03-23T13:49:55;56368.34;;;-142.13;35.95
11712;BME280;5912;51.034;6.984;2024-03-23T13:52:21;56398.41;;;-142.13;36.94
11712;BME280;5912;51.034;6.984;2024-03-23T13:54:49;56402.41;;;-142.13;36.60